createdAt,value
2022-12-22T00:00:13.847Z,74.49
2022-12-22T00:02:58.879Z,74.96
2022-12-22T00:05:44.252Z,75.56
2022-12-22T00:08:29.655Z,75.76
2022-12-22T00:11:16.735Z,75.19
2022-12-22T00:14:04.510Z,76.74
2022-12-22T00:16:55.432Z,76.09
2022-12-22T00:19:40.809Z,76.16
2022-12-22T00:22:32.707Z,74.64
2022-12-22T00:25:17.395Z,75.37
2022-12-22T00:28:02.774Z,76.74
2022-12-22T00:30:47.661Z,76.54
2022-12-22T00:33:35.415Z,76.89
2022-12-22T00:36:22.235Z,75.22
2022-12-22T00:39:07.104Z,75.65
2022-12-22T00:41:51.922Z,76.11
2022-12-22T00:44:36.836Z,74.08
2022-12-22T00:47:22.067Z,77.09
2022-12-22T00:50:08.286Z,75.49
2022-12-22T00:52:54.090Z,75.03
2022-12-22T00:55:51.066Z,75.34
2022-12-22T00:58:39.001Z,77.48
2022-12-22T01:01:23.742Z,77.21
2022-12-22T01:04:08.647Z,76.26
2022-12-22T01:06:54.917Z,75.71
2022-12-22T01:09:41.911Z,77.09
2022-12-22T01:12:34.824Z,78.51
2022-12-22T01:15:19.634Z,76.44
2022-12-22T01:18:04.404Z,77.22
2022-12-22T01:20:50.263Z,76.18
2022-12-22T01:23:35.029Z,75.55
2022-12-22T01:26:19.873Z,76.08
2022-12-22T01:29:04.717Z,76.83
2022-12-22T01:31:51.412Z,77.90
2022-12-22T01:34:36.381Z,79.15
2022-12-22T01:37:24.179Z,77.67
2022-12-22T01:40:09.031Z,76.50
2022-12-22T01:42:54.366Z,77.33
2022-12-22T01:45:43.632Z,78.33
2022-12-22T01:48:36.107Z,77.12
2022-12-22T01:51:29.483Z,76.77
2022-12-22T01:54:16.787Z,75.84
2022-12-22T01:57:04.019Z,77.56
2022-12-22T01:59:49.407Z,76.86
2022-12-22T02:02:36.771Z,76.31
2022-12-22T02:05:24.952Z,74.76
2022-12-22T02:08:15.951Z,75.67
2022-12-22T02:11:06.874Z,75.64
2022-12-22T02:14:06.947Z,75.38
2022-12-22T02:17:14.449Z,75.44
2022-12-22T02:20:33.823Z,74.51
2022-12-22T02:23:18.649Z,74.76
2022-12-22T02:26:19.387Z,74.36
2022-12-22T02:29:06.595Z,74.95
2022-12-22T02:31:58.161Z,75.00
2022-12-22T02:34:43.508Z,74.21
2022-12-22T02:37:37.542Z,74.55
2022-12-22T02:40:25.657Z,76.40
2022-12-22T02:43:27.585Z,74.81
2022-12-22T02:46:36.211Z,74.88
2022-12-22T02:49:44.960Z,74.36
2022-12-22T02:52:38.337Z,75.57
2022-12-22T02:55:24.688Z,74.19
2022-12-22T02:58:10.679Z,74.06
2022-12-22T03:00:57.383Z,73.67
2022-12-22T03:03:42.764Z,74.20
2022-12-22T03:06:27.934Z,74.43
2022-12-22T03:09:12.840Z,73.77
2022-12-22T03:11:57.679Z,73.61
2022-12-22T03:14:42.432Z,73.40
2022-12-22T03:17:27.271Z,73.08
2022-12-22T03:20:12.024Z,72.81
2022-12-22T03:22:56.835Z,73.63
2022-12-22T03:25:41.563Z,72.38
2022-12-22T03:28:12.060Z,73.41
2022-12-22T03:30:38.972Z,72.56
2022-12-22T03:33:05.502Z,72.83
2022-12-22T03:35:31.932Z,72.42
2022-12-22T03:38:03.203Z,72.90
2022-12-22T03:40:31.258Z,72.71
2022-12-22T03:43:16.530Z,72.93
2022-12-22T03:46:01.347Z,73.73
2022-12-22T03:48:27.730Z,73.32
2022-12-22T03:50:54.179Z,74.08
2022-12-22T03:53:20.554Z,73.80
2022-12-22T03:55:46.938Z,73.67
2022-12-22T03:58:13.310Z,72.84
2022-12-22T04:00:39.779Z,74.02
2022-12-22T04:03:06.326Z,74.39
2022-12-22T04:05:32.914Z,74.77
2022-12-22T04:07:59.356Z,74.73
2022-12-22T04:10:44.362Z,75.45
2022-12-22T04:13:10.751Z,75.14
2022-12-22T04:15:37.172Z,75.02
2022-12-22T04:18:03.792Z,74.37
2022-12-22T04:20:30.230Z,74.50
2022-12-22T04:22:57.164Z,75.36
2022-12-22T04:25:25.671Z,74.90
2022-12-22T04:27:52.100Z,74.36
2022-12-22T04:30:18.817Z,74.69
2022-12-22T04:32:45.241Z,74.78
2022-12-22T04:35:12.096Z,75.10
2022-12-22T04:37:38.564Z,75.25
2022-12-22T04:40:05.713Z,75.48
2022-12-22T04:42:32.163Z,76.08
2022-12-22T04:44:58.595Z,75.66
2022-12-22T04:47:25.073Z,76.46
2022-12-22T04:49:51.490Z,76.67
2022-12-22T04:52:17.927Z,75.08
2022-12-22T04:54:44.364Z,75.48
2022-12-22T04:57:11.449Z,75.51
2022-12-22T04:59:37.979Z,75.12
2022-12-22T05:02:04.620Z,74.21
2022-12-22T05:04:31.223Z,74.36
2022-12-22T05:06:57.664Z,74.23
2022-12-22T05:09:24.117Z,75.15
2022-12-22T05:11:50.556Z,75.83
2022-12-22T05:14:16.954Z,75.82
2022-12-22T05:16:43.518Z,75.63
2022-12-22T05:19:10.043Z,75.81
2022-12-22T05:21:36.540Z,74.67
2022-12-22T05:24:03.266Z,75.77
2022-12-22T05:26:29.798Z,77.37
2022-12-22T05:28:56.230Z,76.98
2022-12-22T05:31:24.981Z,75.97
2022-12-22T05:33:51.610Z,77.02
2022-12-22T05:36:18.525Z,76.32
2022-12-22T05:38:45.161Z,76.04
2022-12-22T05:41:11.734Z,76.29
2022-12-22T05:43:38.401Z,76.55
2022-12-22T05:46:07.183Z,76.60
2022-12-22T05:48:38.533Z,76.87
2022-12-22T05:51:07.759Z,76.95
2022-12-22T05:53:34.299Z,75.93
2022-12-22T05:56:00.720Z,75.51
2022-12-22T05:58:27.166Z,74.61
2022-12-22T06:00:57.690Z,74.81
2022-12-22T06:03:26.237Z,75.93
2022-12-22T06:05:53.155Z,76.10
2022-12-22T06:08:20.202Z,75.69
2022-12-22T06:10:49.559Z,75.20
2022-12-22T06:13:16.069Z,74.36
2022-12-22T06:15:42.649Z,74.41
2022-12-22T06:18:09.196Z,75.10
2022-12-22T06:20:35.623Z,75.63
2022-12-22T06:23:02.082Z,74.53
2022-12-22T06:25:28.511Z,75.48
2022-12-22T06:27:54.926Z,74.41
2022-12-22T06:30:23.437Z,77.14
2022-12-22T06:32:53.904Z,75.82
2022-12-22T06:35:20.358Z,75.22
2022-12-22T06:37:46.762Z,75.57
2022-12-22T06:40:13.445Z,76.39
2022-12-22T06:43:03.955Z,76.45
2022-12-22T06:45:39.559Z,75.31
2022-12-22T06:48:06.869Z,74.25
2022-12-22T06:50:33.324Z,76.26
2022-12-22T06:52:59.835Z,76.95
2022-12-22T06:55:26.452Z,74.87
2022-12-22T06:58:04.895Z,76.21
2022-12-22T07:00:31.929Z,76.33
2022-12-22T07:02:58.535Z,75.85
2022-12-22T07:05:25.837Z,75.71
2022-12-22T07:07:53.264Z,74.56
2022-12-22T07:10:39.815Z,76.39
2022-12-22T07:13:19.052Z,76.65
2022-12-22T07:15:49.728Z,77.80
2022-12-22T07:18:18.749Z,77.16
2022-12-22T07:20:45.238Z,77.96
2022-12-22T07:23:15.107Z,77.79
2022-12-22T07:25:42.099Z,77.92
2022-12-22T07:28:08.561Z,77.11
2022-12-22T07:30:36.715Z,76.86
2022-12-22T07:33:03.767Z,77.15
2022-12-22T07:35:30.651Z,77.88
2022-12-22T07:37:57.060Z,78.75
2022-12-22T07:40:23.598Z,78.21
2022-12-22T07:42:50.033Z,78.53
2022-12-22T07:45:19.784Z,77.84
2022-12-22T07:47:46.854Z,78.15
2022-12-22T07:50:25.442Z,77.37
2022-12-22T07:52:52.831Z,76.45
2022-12-22T07:55:20.241Z,77.64
2022-12-22T07:57:46.728Z,79.47
2022-12-22T08:00:14.164Z,77.14
2022-12-22T08:02:40.755Z,76.62
2022-12-22T08:05:08.963Z,76.69
2022-12-22T08:07:35.466Z,76.73
2022-12-22T08:10:02.074Z,77.50
2022-12-22T08:12:29.621Z,76.52
2022-12-22T08:14:56.364Z,77.06
2022-12-22T08:17:22.812Z,76.72
2022-12-22T08:19:49.280Z,76.09
2022-12-22T08:22:15.672Z,76.81
2022-12-22T08:24:42.085Z,76.88
2022-12-22T08:27:14.448Z,76.49
2022-12-22T08:29:46.607Z,76.17
2022-12-22T08:32:13.454Z,77.30
2022-12-22T08:34:40.165Z,77.08
2022-12-22T08:37:13.012Z,77.37
2022-12-22T08:39:41.689Z,78.27
2022-12-22T08:42:11.507Z,77.46
2022-12-22T08:44:39.070Z,76.41
2022-12-22T08:47:07.165Z,77.60
2022-12-22T08:49:36.630Z,78.82
2022-12-22T08:52:03.741Z,76.82
2022-12-22T08:54:30.350Z,77.24
2022-12-22T08:56:58.596Z,78.15
2022-12-22T08:59:25.107Z,76.78
2022-12-22T09:01:51.667Z,76.28
2022-12-22T09:04:21.231Z,77.30
2022-12-22T09:06:47.914Z,77.36
2022-12-22T09:09:16.489Z,77.30
2022-12-22T09:11:43.043Z,76.49
2022-12-22T09:14:10.667Z,76.34
2022-12-22T09:16:37.595Z,76.96
2022-12-22T09:19:04.821Z,75.91
2022-12-22T09:21:31.274Z,76.83
2022-12-22T09:23:58.544Z,76.63
2022-12-22T09:26:28.389Z,76.21
2022-12-22T09:28:55.229Z,76.89
2022-12-22T09:31:23.692Z,77.46
2022-12-22T09:33:51.082Z,77.03
2022-12-22T09:36:20.129Z,76.35
2022-12-22T09:38:47.270Z,76.68
2022-12-22T09:41:22.369Z,77.04
2022-12-22T09:43:48.948Z,77.37
2022-12-22T09:46:33.625Z,77.51
2022-12-22T09:49:00.151Z,76.77
2022-12-22T09:51:27.791Z,78.07
2022-12-22T09:53:58.276Z,77.92
2022-12-22T09:56:27.081Z,77.68
2022-12-22T09:58:53.551Z,77.21
2022-12-22T10:01:57.442Z,77.72
2022-12-22T10:04:39.575Z,77.39
2022-12-22T10:07:11.938Z,77.20
2022-12-22T10:09:53.685Z,78.35
2022-12-22T10:12:23.571Z,77.83
2022-12-22T10:14:52.427Z,79.27
2022-12-22T10:17:31.388Z,80.70
2022-12-22T10:20:07.155Z,79.28
2022-12-22T10:22:45.478Z,78.25
2022-12-22T10:25:39.912Z,77.70
2022-12-22T10:28:22.559Z,77.74
2022-12-22T10:30:51.984Z,77.60
2022-12-22T10:33:19.025Z,77.22
2022-12-22T10:35:54.744Z,78.33
2022-12-22T10:38:26.903Z,77.88
2022-12-22T10:41:02.213Z,77.65
2022-12-22T10:43:29.161Z,78.29
2022-12-22T10:45:57.408Z,80.04
2022-12-22T10:48:34.478Z,79.56
2022-12-22T10:51:02.471Z,80.38
2022-12-22T10:53:56.054Z,81.05
2022-12-22T10:56:25.660Z,80.88
2022-12-22T10:58:57.438Z,82.55
2022-12-22T11:01:35.100Z,81.48
2022-12-22T11:04:25.067Z,80.06
2022-12-22T11:06:54.009Z,81.08
2022-12-22T11:09:33.898Z,80.58
2022-12-22T11:12:19.572Z,80.39
2022-12-22T11:14:49.017Z,80.80
2022-12-22T11:17:26.608Z,81.42
2022-12-22T11:19:58.884Z,84.13
2022-12-22T11:22:41.242Z,86.11
2022-12-22T11:25:39.876Z,89.91
2022-12-22T11:28:15.711Z,85.28
2022-12-22T11:31:09.830Z,86.83
2022-12-22T11:34:28.077Z,86.43
2022-12-22T11:37:12.919Z,87.51
2022-12-22T11:39:41.895Z,87.83
2022-12-22T11:42:23.186Z,87.57
2022-12-22T11:45:39.084Z,88.85
2022-12-22T11:48:39.943Z,86.37
2022-12-22T11:51:28.043Z,88.46
2022-12-22T11:54:27.327Z,87.41
2022-12-22T11:57:19.562Z,84.32
2022-12-22T11:59:58.037Z,87.50
2022-12-22T12:02:36.711Z,87.99
2022-12-22T12:05:55.306Z,85.77
2022-12-22T12:08:56.718Z,86.93
2022-12-22T12:11:49.267Z,86.01
2022-12-22T12:14:19.182Z,88.05
2022-12-22T12:16:55.855Z,86.86
2022-12-22T12:19:33.719Z,88.26
2022-12-22T12:22:11.609Z,85.31
2022-12-22T12:24:53.936Z,84.08
2022-12-22T12:27:26.112Z,87.00
2022-12-22T12:33:03.407Z,90.42
2022-12-22T12:36:17.348Z,90.30
2022-12-22T12:39:28.772Z,88.54
2022-12-22T12:42:42.176Z,88.29
2022-12-22T12:45:38.397Z,84.07
2022-12-22T12:48:36.904Z,86.30
2022-12-22T12:51:42.083Z,87.17
2022-12-22T12:54:26.804Z,87.16
2022-12-22T12:57:06.913Z,84.01
2022-12-22T12:59:39.356Z,83.85
2022-12-22T13:02:31.253Z,85.90
2022-12-22T13:05:12.967Z,86.36
2022-12-22T13:08:24.523Z,86.14
2022-12-22T13:10:54.055Z,85.10
2022-12-22T13:13:26.262Z,85.46
2022-12-22T13:16:04.837Z,86.65
2022-12-22T13:18:34.165Z,86.63
2022-12-22T13:21:26.093Z,86.40
2022-12-22T13:24:23.330Z,84.61
2022-12-22T13:26:44.380Z,83.19
2022-12-22T13:29:19.663Z,83.47
2022-12-22T13:31:49.770Z,86.69
2022-12-22T13:34:22.307Z,87.63
2022-12-22T13:36:50.798Z,85.13
2022-12-22T13:39:17.620Z,81.40
2022-12-22T13:41:49.824Z,84.85
2022-12-22T13:44:25.236Z,83.30
2022-12-22T13:46:51.886Z,85.83
2022-12-22T13:49:36.151Z,83.22
2022-12-22T13:52:14.046Z,83.70
2022-12-22T13:54:45.278Z,84.86
2022-12-22T13:57:21.103Z,84.65
2022-12-22T13:59:50.182Z,84.62
2022-12-22T14:02:19.510Z,87.41
2022-12-22T14:05:13.193Z,82.59
2022-12-22T14:07:39.589Z,81.78
2022-12-22T14:10:07.524Z,80.11
2022-12-22T14:12:42.491Z,82.91
2022-12-22T14:15:16.882Z,82.69
2022-12-22T14:17:52.079Z,83.64
2022-12-22T14:20:38.026Z,84.19
2022-12-22T14:23:13.509Z,83.27
2022-12-22T14:25:42.982Z,84.88
2022-12-22T14:28:20.496Z,83.87
2022-12-22T14:30:50.361Z,82.77
2022-12-22T14:33:29.858Z,83.74
2022-12-22T14:36:05.294Z,79.06
2022-12-22T14:38:39.648Z,80.34
2022-12-22T14:41:31.877Z,81.80
2022-12-22T14:43:59.354Z,80.82
2022-12-22T14:46:25.853Z,82.05
2022-12-22T14:48:52.419Z,81.01
2022-12-22T14:51:19.722Z,79.45
2022-12-22T14:54:02.835Z,82.15
2022-12-22T14:56:29.512Z,80.98
2022-12-22T14:59:11.521Z,82.10
2022-12-22T15:01:38.470Z,82.55
2022-12-22T15:04:04.921Z,82.05
2022-12-22T15:06:35.688Z,83.03
2022-12-22T15:09:06.440Z,79.64
2022-12-22T15:11:34.015Z,79.37
2022-12-22T15:14:01.754Z,81.24
2022-12-22T15:16:28.311Z,77.35
2022-12-22T15:18:55.112Z,77.07
2022-12-22T15:21:22.879Z,78.51
2022-12-22T15:23:49.312Z,75.98
2022-12-22T15:26:15.779Z,77.09
2022-12-22T15:28:42.215Z,76.83
2022-12-22T15:31:14.971Z,75.58
2022-12-22T15:33:42.175Z,76.24
2022-12-22T15:36:13.515Z,76.38
2022-12-22T15:38:41.261Z,75.86
2022-12-22T15:41:08.072Z,75.75
2022-12-22T15:43:57.366Z,75.94
2022-12-22T15:46:24.556Z,75.91
2022-12-22T15:48:51.203Z,75.72
2022-12-22T15:51:24.688Z,75.61
2022-12-22T15:53:51.795Z,76.89
2022-12-22T15:56:21.327Z,77.16
2022-12-22T15:58:48.880Z,77.09
2022-12-22T16:01:15.946Z,76.68
2022-12-22T16:03:42.557Z,76.78
2022-12-22T16:06:14.410Z,77.13
2022-12-22T16:08:44.559Z,76.02
2022-12-22T16:11:11.157Z,74.94
2022-12-22T16:13:38.384Z,75.53
2022-12-22T16:16:05.644Z,75.27
2022-12-22T16:18:32.739Z,74.31
2022-12-22T16:21:07.756Z,75.51
2022-12-22T16:23:36.617Z,75.35
2022-12-22T16:26:04.819Z,74.41
2022-12-22T16:28:33.100Z,75.02
2022-12-22T16:31:00.613Z,74.50
2022-12-22T16:33:27.365Z,75.03
2022-12-22T16:35:53.784Z,74.65
2022-12-22T16:38:20.642Z,76.34
2022-12-22T16:40:52.888Z,74.46
2022-12-22T16:46:21.812Z,74.33
2022-12-22T16:49:00.931Z,75.00
2022-12-22T16:51:34.623Z,74.19
2022-12-22T16:54:01.910Z,74.41
2022-12-22T16:56:30.623Z,74.43
2022-12-22T16:58:57.877Z,74.77
2022-12-22T17:01:46.241Z,75.65
2022-12-22T17:04:21.277Z,75.62
2022-12-22T17:06:49.675Z,74.17
2022-12-22T17:09:21.707Z,74.01
2022-12-22T17:11:48.674Z,73.08
2022-12-22T17:14:28.090Z,74.14
2022-12-22T17:16:54.630Z,73.79
2022-12-22T17:19:21.018Z,73.53
2022-12-22T17:21:48.088Z,72.67
2022-12-22T17:24:18.143Z,73.13
2022-12-22T17:26:47.008Z,73.34
2022-12-22T17:29:19.967Z,73.44
2022-12-22T17:31:48.014Z,73.06
2022-12-22T17:34:16.642Z,73.77
2022-12-22T17:36:49.120Z,73.24
2022-12-22T17:39:18.569Z,72.81
2022-12-22T17:41:49.100Z,72.94
2022-12-22T17:44:22.789Z,72.97
2022-12-22T17:46:49.559Z,72.58
2022-12-22T17:49:19.674Z,72.99
2022-12-22T17:51:46.441Z,72.75
2022-12-22T17:54:24.928Z,72.79
2022-12-22T17:57:00.896Z,73.06
2022-12-22T17:59:27.453Z,73.75
2022-12-22T18:01:53.956Z,72.91
2022-12-22T18:04:20.436Z,73.71
2022-12-22T18:06:47.103Z,72.58
2022-12-22T18:09:23.196Z,72.46
2022-12-22T18:11:50.067Z,73.16
2022-12-22T18:14:16.777Z,72.99
2022-12-22T18:16:43.959Z,72.75
2022-12-22T18:19:10.626Z,72.60
2022-12-22T18:21:37.200Z,72.43
2022-12-22T18:24:04.202Z,76.07
2022-12-22T18:26:32.598Z,73.94
2022-12-22T18:28:59.700Z,73.07
2022-12-22T18:31:26.228Z,72.63
2022-12-22T18:33:52.913Z,73.08
2022-12-22T18:36:31.701Z,72.47
2022-12-22T18:39:00.375Z,71.82
2022-12-22T18:41:29.539Z,72.99
2022-12-22T18:43:55.909Z,72.40
2022-12-22T18:46:23.519Z,72.23
2022-12-22T18:48:50.248Z,72.44
2022-12-22T18:51:22.014Z,74.48
2022-12-22T18:53:50.218Z,73.23
2022-12-22T18:56:17.157Z,73.14
2022-12-22T18:58:44.101Z,72.43
2022-12-22T19:01:18.443Z,72.25
2022-12-22T19:03:45.631Z,72.59
2022-12-22T19:06:12.328Z,72.71
2022-12-22T19:08:43.583Z,73.41
2022-12-22T19:11:12.601Z,72.97
2022-12-22T19:13:42.519Z,73.14
2022-12-22T19:16:13.300Z,73.17
2022-12-22T19:18:39.769Z,73.87
2022-12-22T19:21:06.252Z,72.26
2022-12-22T19:23:32.677Z,72.39
2022-12-22T19:26:05.704Z,72.77
2022-12-22T19:28:39.595Z,72.27
2022-12-22T19:31:07.510Z,71.87
2022-12-22T19:33:42.233Z,73.13
2022-12-22T19:36:26.837Z,71.80
2022-12-22T19:39:05.793Z,71.32
2022-12-22T19:41:41.387Z,71.78
2022-12-22T19:44:37.328Z,72.62
2022-12-22T19:47:16.555Z,71.79
2022-12-22T19:49:43.046Z,71.60
2022-12-22T19:52:10.569Z,71.37
2022-12-22T19:54:37.710Z,71.60
2022-12-22T19:57:07.648Z,71.72
2022-12-22T19:59:50.648Z,72.71
2022-12-22T20:02:32.434Z,73.08
2022-12-22T20:04:59.550Z,72.69
2022-12-22T20:07:28.405Z,71.97
2022-12-22T20:09:55.133Z,71.99
2022-12-22T20:12:33.092Z,73.08
2022-12-22T20:15:00.037Z,73.21
2022-12-22T20:17:26.698Z,72.36
2022-12-22T20:19:53.089Z,73.61
2022-12-22T20:22:22.143Z,73.58
2022-12-22T20:24:50.548Z,72.72
2022-12-22T20:27:21.759Z,72.72
2022-12-22T20:29:48.175Z,73.34
2022-12-22T20:32:15.338Z,73.33
2022-12-22T20:34:42.222Z,72.86
2022-12-22T20:37:18.653Z,72.70
2022-12-22T20:39:45.621Z,73.55
2022-12-22T20:42:20.137Z,73.52
2022-12-22T20:45:02.270Z,73.06
2022-12-22T20:47:30.082Z,73.99
2022-12-22T20:49:56.549Z,73.60
2022-12-22T20:52:22.965Z,73.95
2022-12-22T20:54:49.489Z,74.60
2022-12-22T20:57:16.880Z,73.90
2022-12-22T20:59:44.380Z,74.99
2022-12-22T21:02:23.593Z,74.34
2022-12-22T21:04:50.244Z,73.98
2022-12-22T21:07:16.717Z,74.29
2022-12-22T21:09:43.344Z,75.07
2022-12-22T21:12:09.836Z,74.06
2022-12-22T21:14:36.302Z,74.26
2022-12-22T21:17:02.827Z,74.40
2022-12-22T21:19:29.598Z,74.53
2022-12-22T21:21:56.011Z,74.32
2022-12-22T21:24:22.441Z,74.75
2022-12-22T21:26:53.098Z,75.51
2022-12-22T21:29:23.428Z,75.04
2022-12-22T21:31:49.987Z,75.58
2022-12-22T21:34:16.595Z,75.52
2022-12-22T21:36:46.199Z,76.48
2022-12-22T21:39:41.837Z,75.89
2022-12-22T21:42:15.805Z,76.38
2022-12-22T21:44:42.264Z,76.49
2022-12-22T21:47:13.661Z,78.04
2022-12-22T21:49:40.150Z,77.85
2022-12-22T21:52:06.685Z,76.14
2022-12-22T21:54:33.129Z,76.80
2022-12-22T21:56:59.607Z,75.55
2022-12-22T21:59:26.059Z,75.31
2022-12-22T22:01:53.395Z,75.26
2022-12-22T22:04:21.044Z,74.95
2022-12-22T22:06:47.592Z,75.85
2022-12-22T22:09:14.109Z,75.56
2022-12-22T22:11:59.714Z,76.86
2022-12-22T22:14:26.620Z,76.89
2022-12-22T22:16:53.216Z,76.11
2022-12-22T22:19:19.670Z,75.19
2022-12-22T22:21:46.904Z,75.64
2022-12-22T22:24:13.444Z,74.94
2022-12-22T22:26:39.934Z,74.48
2022-12-22T22:29:06.780Z,76.66
2022-12-22T22:31:33.361Z,77.36
2022-12-22T22:33:59.808Z,77.96
2022-12-22T22:36:26.288Z,78.19
2022-12-22T22:38:52.774Z,78.54
2022-12-22T22:41:19.187Z,76.88
2022-12-22T22:43:45.606Z,76.42
2022-12-22T22:46:12.023Z,77.08
2022-12-22T22:48:38.500Z,76.65
2022-12-22T22:51:08.125Z,77.27
2022-12-22T22:53:35.277Z,79.20
2022-12-22T22:56:02.767Z,79.07
2022-12-22T22:58:29.668Z,78.10
2022-12-22T23:00:56.317Z,78.48
2022-12-22T23:03:23.106Z,77.17
2022-12-22T23:05:49.664Z,76.90
2022-12-22T23:08:16.071Z,77.23
2022-12-22T23:10:48.277Z,77.20
2022-12-22T23:13:14.667Z,77.34
2022-12-22T23:15:41.106Z,78.31
2022-12-22T23:18:07.563Z,78.14
2022-12-22T23:20:33.973Z,77.32
2022-12-22T23:23:00.391Z,78.20
2022-12-22T23:25:26.808Z,79.93
2022-12-22T23:27:53.210Z,80.51
2022-12-22T23:30:19.760Z,79.50
2022-12-22T23:32:46.188Z,80.28
2022-12-22T23:35:12.580Z,79.20
2022-12-22T23:37:38.997Z,78.69
2022-12-22T23:42:56.834Z,79.18
2022-12-22T23:45:23.825Z,78.64
2022-12-22T23:47:50.245Z,77.79
2022-12-22T23:50:16.704Z,78.95
2022-12-22T23:52:48.990Z,77.96
2022-12-22T23:55:15.959Z,79.94
2022-12-22T23:57:42.423Z,77.89
